createdAt,value
2018-05-14T00:01:07.566Z,19.56
2018-05-14T00:03:35.045Z,19.24
2018-05-14T00:06:02.494Z,19.53
2018-05-14T00:08:29.972Z,19.49
2018-05-14T00:10:58.280Z,19.43
2018-05-14T00:13:25.910Z,19.46
2018-05-14T00:15:53.371Z,19.22
2018-05-14T00:18:20.849Z,19.45
2018-05-14T00:20:48.388Z,19.45
2018-05-14T00:23:15.957Z,19.30
2018-05-14T00:25:43.439Z,19.40
2018-05-14T00:28:10.912Z,19.33
2018-05-14T00:30:38.403Z,19.30
2018-05-14T00:33:05.914Z,18.95
2018-05-14T00:35:33.444Z,19.19
2018-05-14T00:38:00.894Z,19.27
2018-05-14T00:40:28.372Z,18.98
2018-05-14T00:42:55.823Z,19.33
2018-05-14T00:45:23.349Z,18.86
2018-05-14T00:47:50.811Z,18.82
2018-05-14T00:50:18.314Z,18.66
2018-05-14T00:52:45.797Z,18.88
2018-05-14T00:55:18.175Z,18.94
2018-05-14T00:57:45.653Z,18.70
2018-05-14T01:00:13.126Z,18.67
2018-05-14T01:02:40.681Z,18.93
2018-05-14T01:05:08.126Z,18.99
2018-05-14T01:07:35.604Z,19.03
2018-05-14T01:10:03.056Z,19.13
2018-05-14T01:12:30.549Z,19.04
2018-05-14T01:14:58.011Z,18.74
2018-05-14T01:17:25.679Z,18.76
2018-05-14T01:19:53.136Z,18.88
2018-05-14T01:22:20.604Z,18.92
2018-05-14T01:24:53.618Z,18.68
2018-05-14T01:27:21.686Z,18.46
2018-05-14T01:29:49.162Z,18.51
2018-05-14T01:32:16.671Z,18.25
2018-05-14T01:34:44.164Z,18.52
2018-05-14T01:37:11.633Z,18.51
2018-05-14T01:39:39.133Z,18.34
2018-05-14T01:42:06.606Z,18.26
2018-05-14T01:44:34.149Z,18.29
2018-05-14T01:47:02.470Z,18.40
2018-05-14T01:49:30.011Z,18.11
2018-05-14T01:51:57.464Z,18.13
2018-05-14T01:54:24.937Z,18.14
2018-05-14T01:56:52.406Z,18.31
2018-05-14T01:59:20.032Z,18.16
2018-05-14T02:01:47.481Z,18.33
2018-05-14T02:04:14.999Z,18.13
2018-05-14T02:06:42.471Z,18.08
2018-05-14T02:09:10.068Z,18.09
2018-05-14T02:11:37.557Z,17.87
2018-05-14T02:14:05.009Z,17.86
2018-05-14T02:16:32.476Z,17.75
2018-05-14T02:18:59.975Z,18.07
2018-05-14T02:21:27.464Z,17.85
2018-05-14T02:23:54.940Z,17.91
2018-05-14T02:26:22.429Z,17.93
2018-05-14T02:28:49.918Z,17.81
2018-05-14T02:31:17.461Z,17.71
2018-05-14T02:33:44.941Z,17.80
2018-05-14T02:36:12.441Z,17.73
2018-05-14T02:38:39.922Z,17.51
2018-05-14T02:41:07.510Z,17.57
2018-05-14T02:43:34.993Z,17.79
2018-05-14T02:46:02.447Z,17.71
2018-05-14T02:48:29.911Z,17.47
2018-05-14T02:50:57.444Z,17.47
2018-05-14T02:53:24.910Z,17.54
2018-05-14T02:55:52.382Z,17.38
2018-05-14T02:58:19.891Z,17.45
2018-05-14T03:00:47.359Z,17.57
2018-05-14T03:03:14.815Z,17.27
2018-05-14T03:05:42.307Z,17.45
2018-05-14T03:08:09.795Z,17.29
2018-05-14T03:10:37.369Z,17.36
2018-05-14T03:13:04.841Z,17.37
2018-05-14T03:15:32.349Z,17.43
2018-05-14T03:17:59.845Z,17.51
2018-05-14T03:20:27.732Z,17.45
2018-05-14T03:22:55.186Z,17.47
2018-05-14T03:25:22.641Z,17.22
2018-05-14T03:27:50.146Z,17.28
2018-05-14T03:30:17.730Z,17.18
2018-05-14T03:32:45.253Z,17.19
2018-05-14T03:35:12.730Z,17.33
2018-05-14T03:37:40.229Z,17.15
2018-05-14T03:40:07.850Z,17.16
2018-05-14T03:42:35.298Z,17.18
2018-05-14T03:45:02.780Z,17.05
2018-05-14T03:47:30.285Z,17.16
2018-05-14T03:49:57.934Z,17.19
2018-05-14T03:52:25.380Z,17.24
2018-05-14T03:54:52.861Z,17.26
2018-05-14T03:57:20.341Z,17.04
2018-05-14T03:59:59.704Z,17.01
2018-05-14T04:02:38.791Z,17.02
2018-05-14T04:05:10.901Z,17.03
2018-05-14T04:07:38.369Z,17.05
2018-05-14T04:10:05.833Z,17.02
2018-05-14T04:12:33.321Z,16.93
2018-05-14T04:15:00.775Z,16.94
2018-05-14T04:17:28.297Z,17.11
2018-05-14T04:19:55.774Z,16.93
2018-05-14T04:22:23.243Z,16.93
2018-05-14T04:24:50.747Z,17.15
2018-05-14T04:27:18.221Z,17.01
2018-05-14T04:29:45.701Z,17.13
2018-05-14T04:32:13.164Z,17.02
2018-05-14T04:34:40.654Z,17.15
2018-05-14T04:37:08.133Z,17.06
2018-05-14T04:39:35.626Z,17.21
2018-05-14T04:42:03.074Z,17.25
2018-05-14T04:44:30.518Z,17.16
2018-05-14T04:46:57.982Z,17.37
2018-05-14T04:49:25.564Z,17.13
2018-05-14T04:51:53.082Z,17.18
2018-05-14T04:54:20.557Z,17.19
2018-05-14T04:56:48.023Z,17.30
2018-05-14T04:59:15.668Z,17.29
2018-05-14T05:01:43.173Z,17.36
2018-05-14T05:04:10.638Z,17.33
2018-05-14T05:06:38.229Z,17.24
2018-05-14T05:09:05.737Z,17.39
2018-05-14T05:11:33.232Z,17.53
2018-05-14T05:14:00.728Z,17.39
2018-05-14T05:16:28.286Z,17.53
2018-05-14T05:18:55.878Z,17.66
2018-05-14T05:21:23.378Z,17.55
2018-05-14T05:23:50.857Z,17.65
2018-05-14T05:26:18.357Z,17.65
2018-05-14T05:28:45.876Z,17.75
2018-05-14T05:31:14.076Z,17.65
2018-05-14T05:33:41.584Z,17.72
2018-05-14T05:36:09.053Z,17.88
2018-05-14T05:38:36.532Z,17.79
2018-05-14T05:41:04.027Z,17.94
2018-05-14T05:43:31.525Z,17.96
2018-05-14T05:45:59.000Z,17.91
2018-05-14T05:48:26.478Z,17.98
2018-05-14T05:50:53.948Z,18.04
2018-05-14T05:53:21.492Z,18.00
2018-05-14T05:55:49.002Z,18.10
2018-05-14T05:58:16.459Z,18.06
2018-05-14T06:00:43.970Z,18.12
2018-05-14T06:03:11.591Z,18.17
2018-05-14T06:05:39.096Z,18.28
2018-05-14T06:08:06.664Z,18.23
2018-05-14T06:10:34.207Z,18.31
2018-05-14T06:13:01.699Z,18.29
2018-05-14T06:15:29.273Z,18.33
2018-05-14T06:17:56.671Z,18.41
2018-05-14T06:20:24.145Z,18.44
2018-05-14T06:22:51.705Z,18.49
2018-05-14T06:25:19.159Z,18.48
2018-05-14T06:27:46.649Z,18.50
2018-05-14T06:30:14.189Z,18.57
2018-05-14T06:32:41.710Z,18.61
2018-05-14T06:35:09.182Z,18.60
2018-05-14T06:37:36.850Z,18.71
2018-05-14T06:40:04.314Z,18.65
2018-05-14T06:42:31.833Z,18.78
2018-05-14T06:44:59.302Z,18.83
2018-05-14T06:47:26.758Z,18.86
2018-05-14T06:49:54.355Z,18.85
2018-05-14T06:52:21.825Z,18.87
2018-05-14T06:54:49.316Z,18.94
2018-05-14T06:57:16.789Z,19.07
2018-05-14T06:59:44.273Z,19.03
2018-05-14T07:02:11.730Z,19.10
2018-05-14T07:04:39.218Z,19.31
2018-05-14T07:07:06.693Z,19.25
2018-05-14T07:09:34.169Z,19.37
2018-05-14T07:12:01.648Z,19.46
2018-05-14T07:14:29.197Z,19.45
2018-05-14T07:16:56.692Z,19.51
2018-05-14T07:19:24.250Z,19.63
2018-05-14T07:21:51.713Z,19.54
2018-05-14T07:24:19.283Z,19.76
2018-05-14T07:26:46.792Z,19.58
2018-05-14T07:29:14.265Z,19.79
2018-05-14T07:31:41.765Z,19.80
2018-05-14T07:34:09.385Z,20.00
2018-05-14T07:36:36.864Z,20.07
2018-05-14T07:39:04.406Z,20.28
2018-05-14T07:41:31.876Z,20.16
2018-05-14T07:43:59.424Z,20.30
2018-05-14T07:46:26.878Z,20.16
2018-05-14T07:48:54.385Z,20.39
2018-05-14T07:51:21.852Z,20.46
2018-05-14T07:53:49.487Z,20.66
2018-05-14T07:56:16.952Z,20.76
2018-05-14T07:58:44.406Z,20.60
2018-05-14T08:01:11.911Z,20.73
2018-05-14T08:03:39.404Z,20.78
2018-05-14T08:06:06.972Z,20.85
2018-05-14T08:08:34.443Z,21.15
2018-05-14T08:11:01.922Z,21.11
2018-05-14T08:13:29.375Z,21.19
2018-05-14T08:15:56.840Z,21.20
2018-05-14T08:18:24.352Z,21.31
2018-05-14T08:20:51.856Z,21.46
2018-05-14T08:23:19.308Z,21.41
2018-05-14T08:25:46.813Z,21.51
2018-05-14T08:28:14.296Z,21.55
2018-05-14T08:30:42.682Z,21.54
2018-05-14T08:33:10.176Z,21.61
2018-05-14T08:35:37.629Z,21.95
2018-05-14T08:38:05.218Z,21.87
2018-05-14T08:40:32.769Z,22.00
2018-05-14T08:43:00.250Z,22.16
2018-05-14T08:45:27.697Z,22.14
2018-05-14T08:47:56.344Z,21.89
2018-05-14T08:50:23.782Z,22.12
2018-05-14T08:52:51.266Z,22.28
2018-05-14T08:55:18.715Z,22.52
2018-05-14T08:57:46.189Z,22.52
2018-05-14T09:00:13.680Z,22.45
2018-05-14T09:02:41.184Z,22.66
2018-05-14T09:05:08.705Z,22.45
2018-05-14T09:07:36.202Z,22.58
2018-05-14T09:10:03.691Z,22.89
2018-05-14T09:12:31.181Z,22.72
2018-05-14T09:14:58.683Z,23.14
2018-05-14T09:17:26.163Z,23.04
2018-05-14T09:19:53.791Z,23.00
2018-05-14T09:22:21.269Z,23.44
2018-05-14T09:24:48.753Z,23.55
2018-05-14T09:27:16.221Z,23.40
2018-05-14T09:29:43.843Z,23.23
2018-05-14T09:32:11.358Z,23.40
2018-05-14T09:34:38.832Z,23.62
2018-05-14T09:37:06.404Z,23.43
2018-05-14T09:39:33.886Z,23.68
2018-05-14T09:42:01.362Z,23.59
2018-05-14T09:44:28.863Z,24.01
2018-05-14T09:46:56.322Z,23.73
2018-05-14T09:49:23.842Z,23.71
2018-05-14T09:51:51.341Z,23.90
2018-05-14T09:54:18.810Z,24.02
2018-05-14T09:56:46.293Z,24.18
2018-05-14T09:59:13.748Z,24.06
2018-05-14T10:01:41.220Z,24.08
2018-05-14T10:04:08.713Z,23.95
2018-05-14T10:06:36.197Z,24.24
2018-05-14T10:09:03.689Z,24.35
2018-05-14T10:11:31.329Z,24.51
2018-05-14T10:13:58.809Z,24.36
2018-05-14T10:16:26.266Z,24.56
2018-05-14T10:18:53.880Z,24.50
2018-05-14T10:21:21.402Z,24.68
2018-05-14T10:23:48.882Z,24.58
2018-05-14T10:26:16.336Z,24.69
2018-05-14T10:28:43.823Z,24.69
2018-05-14T10:31:11.343Z,24.57
2018-05-14T10:33:39.712Z,24.76
2018-05-14T10:36:07.168Z,24.99
2018-05-14T10:38:34.638Z,24.98
2018-05-14T10:41:02.177Z,25.22
2018-05-14T10:43:29.737Z,25.11
2018-05-14T10:45:57.196Z,25.04
2018-05-14T10:48:24.681Z,24.96
2018-05-14T10:50:52.138Z,24.94
2018-05-14T10:53:20.451Z,25.11
2018-05-14T10:55:48.032Z,25.19
2018-05-14T10:58:15.499Z,25.37
2018-05-14T11:00:42.974Z,25.23
2018-05-14T11:03:10.455Z,25.43
2018-05-14T11:05:38.050Z,25.40
2018-05-14T11:08:05.549Z,25.47
2018-05-14T11:10:33.091Z,25.19
2018-05-14T11:13:00.553Z,25.54
2018-05-14T11:15:28.169Z,25.35
2018-05-14T11:17:55.657Z,25.37
2018-05-14T11:20:23.115Z,25.40
2018-05-14T11:22:50.561Z,25.19
2018-05-14T11:25:18.040Z,25.12
2018-05-14T11:27:45.627Z,25.22
2018-05-14T11:30:13.064Z,25.24
2018-05-14T11:32:40.515Z,25.22
2018-05-14T11:35:08.054Z,25.49
2018-05-14T11:37:35.587Z,25.78
2018-05-14T11:40:03.035Z,25.67
2018-05-14T11:42:30.535Z,25.81
2018-05-14T11:44:57.983Z,25.67
2018-05-14T11:47:25.681Z,25.76
2018-05-14T11:49:53.147Z,25.84
2018-05-14T11:52:20.620Z,25.75
2018-05-14T11:54:48.238Z,25.95
2018-05-14T11:57:15.700Z,25.61
2018-05-14T11:59:43.198Z,25.82
2018-05-14T12:02:10.655Z,25.72
2018-05-14T12:04:38.173Z,25.98
2018-05-14T12:07:05.719Z,26.09
2018-05-14T12:09:33.319Z,25.99
2018-05-14T12:12:00.792Z,26.11
2018-05-14T12:14:28.266Z,26.23
2018-05-14T12:16:55.861Z,26.14
2018-05-14T12:19:23.329Z,26.20
2018-05-14T12:21:50.827Z,26.43
2018-05-14T12:24:18.298Z,25.93
2018-05-14T12:26:45.823Z,26.13
2018-05-14T12:29:14.324Z,26.23
2018-05-14T12:31:41.792Z,26.46
2018-05-14T12:34:09.281Z,26.46
2018-05-14T12:36:36.742Z,25.97
2018-05-14T12:39:04.237Z,25.72
2018-05-14T12:41:31.713Z,25.76
2018-05-14T12:43:59.209Z,26.21
2018-05-14T12:46:26.681Z,26.26
2018-05-14T12:48:54.130Z,26.52
2018-05-14T12:51:21.608Z,26.38
2018-05-14T12:53:49.069Z,26.53
2018-05-14T12:56:16.561Z,26.51
2018-05-14T12:58:44.008Z,26.50
2018-05-14T13:01:11.594Z,26.65
2018-05-14T13:03:39.073Z,26.72
2018-05-14T13:06:06.584Z,26.87
2018-05-14T13:08:34.095Z,27.26
2018-05-14T13:11:01.645Z,27.01
2018-05-14T13:13:29.169Z,26.66
2018-05-14T13:15:56.628Z,26.40
2018-05-14T13:18:24.193Z,26.05
2018-05-14T13:20:51.651Z,25.94
2018-05-14T13:23:19.128Z,26.24
2018-05-14T13:25:46.600Z,26.41
2018-05-14T13:28:14.137Z,26.57
2018-05-14T13:30:41.655Z,26.74
2018-05-14T13:33:09.103Z,26.83
2018-05-14T13:35:36.609Z,26.86
2018-05-14T13:38:04.309Z,26.88
2018-05-14T13:43:19.265Z,26.87
2018-05-14T13:45:46.767Z,26.61
2018-05-14T13:48:14.417Z,26.43
2018-05-14T13:50:41.898Z,26.67
2018-05-14T13:53:09.366Z,26.90
2018-05-14T13:55:36.853Z,27.03
2018-05-14T13:58:05.253Z,26.98
2018-05-14T14:00:32.708Z,26.84
2018-05-14T14:03:00.198Z,26.41
2018-05-14T14:05:27.671Z,26.66
2018-05-14T14:07:55.172Z,26.74
2018-05-14T14:10:22.656Z,26.40
2018-05-14T14:12:50.146Z,26.54
2018-05-14T14:15:17.618Z,26.48
2018-05-14T14:20:48.272Z,26.93
2018-05-14T14:23:15.880Z,26.92
2018-05-14T14:25:43.353Z,26.87
2018-05-14T14:28:11.684Z,26.64
2018-05-14T14:30:39.152Z,26.88
2018-05-14T14:33:06.626Z,26.98
2018-05-14T14:35:34.117Z,27.02
2018-05-14T14:38:01.580Z,27.11
2018-05-14T14:40:29.081Z,27.28
2018-05-14T14:42:56.877Z,27.13
2018-05-14T14:45:24.463Z,27.20
2018-05-14T14:47:52.967Z,27.20
2018-05-14T14:50:20.510Z,27.34
2018-05-14T14:52:48.073Z,27.32
2018-05-14T14:55:15.994Z,27.42
2018-05-14T15:00:22.309Z,27.16
2018-05-14T15:02:50.797Z,27.20
2018-05-14T15:05:18.296Z,27.37
2018-05-14T15:07:45.793Z,27.19
2018-05-14T15:10:13.269Z,27.42
2018-05-14T15:12:40.763Z,27.31
2018-05-14T15:15:08.262Z,27.40
2018-05-14T15:17:35.762Z,27.39
2018-05-14T15:20:03.253Z,27.42
2018-05-14T15:22:30.726Z,27.42
2018-05-14T15:24:58.232Z,27.36
2018-05-14T15:27:25.711Z,27.23
2018-05-14T15:29:53.245Z,27.27
2018-05-14T15:32:20.716Z,27.51
2018-05-14T15:34:48.204Z,27.28
2018-05-14T15:37:15.660Z,27.33
2018-05-14T15:39:47.953Z,27.27
2018-05-14T15:42:15.436Z,27.26
2018-05-14T15:44:42.912Z,27.20
2018-05-14T15:47:10.378Z,27.40
2018-05-14T15:49:46.414Z,27.21
2018-05-14T15:52:21.874Z,27.39
2018-05-14T15:54:49.378Z,27.35
2018-05-14T15:57:16.833Z,27.19
2018-05-14T15:59:44.289Z,27.28
2018-05-14T16:02:11.792Z,27.40
2018-05-14T16:04:39.265Z,27.49
2018-05-14T16:07:06.746Z,27.27
2018-05-14T16:09:34.210Z,27.25
2018-05-14T16:12:01.740Z,27.50
2018-05-14T16:14:29.308Z,27.50
2018-05-14T16:16:56.729Z,27.39
2018-05-14T16:19:24.228Z,27.07
2018-05-14T16:21:52.426Z,27.04
2018-05-14T16:24:20.027Z,26.73
2018-05-14T16:26:47.502Z,26.64
2018-05-14T16:29:14.978Z,26.55
2018-05-14T16:31:42.451Z,26.36
2018-05-14T16:34:10.078Z,26.38
2018-05-14T16:36:37.718Z,26.46
2018-05-14T16:39:05.883Z,26.84
2018-05-14T16:41:33.394Z,26.65
2018-05-14T16:44:01.600Z,26.86
2018-05-14T16:46:29.130Z,26.96
2018-05-14T16:48:57.465Z,26.86
2018-05-14T16:51:25.180Z,27.08
2018-05-14T16:53:54.378Z,26.81
2018-05-14T16:56:24.317Z,26.82
2018-05-14T16:58:51.795Z,26.90
2018-05-14T17:01:19.245Z,26.87
2018-05-14T17:03:49.142Z,26.97
2018-05-14T17:06:16.591Z,26.94
2018-05-14T17:08:44.075Z,26.87
2018-05-14T17:11:11.547Z,26.93
2018-05-14T17:13:39.046Z,26.79
2018-05-14T17:16:06.724Z,26.77
2018-05-14T17:18:34.193Z,26.87
2018-05-14T17:21:01.812Z,26.79
2018-05-14T17:23:29.280Z,26.86
2018-05-14T17:25:56.771Z,26.59
2018-05-14T17:28:24.242Z,26.37
2018-05-14T17:30:53.929Z,26.51
2018-05-14T17:33:21.415Z,26.49
2018-05-14T17:35:49.371Z,26.50
2018-05-14T17:38:16.839Z,26.53
2018-05-14T17:40:44.291Z,26.50
2018-05-14T17:43:11.795Z,26.49
2018-05-14T17:45:39.297Z,26.32
2018-05-14T17:48:06.798Z,26.39
2018-05-14T17:50:34.277Z,26.15
2018-05-14T17:53:01.771Z,26.14
2018-05-14T17:55:29.329Z,26.29
2018-05-14T17:57:56.795Z,26.06
2018-05-14T18:00:24.906Z,26.10
2018-05-14T18:02:52.433Z,26.17
2018-05-14T18:05:20.000Z,25.90
2018-05-14T18:07:47.530Z,25.89
2018-05-14T18:10:15.037Z,25.81
2018-05-14T18:12:42.644Z,25.77
2018-05-14T18:15:10.115Z,25.75
2018-05-14T18:17:37.751Z,25.73
2018-05-14T18:20:10.836Z,25.67
2018-05-14T18:22:40.801Z,25.49
2018-05-14T18:25:13.928Z,25.56
2018-05-14T18:27:46.884Z,25.18
2018-05-14T18:30:14.364Z,25.28
2018-05-14T18:35:54.397Z,25.14
2018-05-14T18:38:21.866Z,25.21
2018-05-14T18:40:49.322Z,25.28
2018-05-14T18:43:16.816Z,25.04
2018-05-14T18:45:44.295Z,25.06
2018-05-14T18:48:11.768Z,25.14
2018-05-14T18:50:39.253Z,24.88
2018-05-14T18:53:06.806Z,24.66
2018-05-14T18:55:34.311Z,24.86
2018-05-14T18:58:01.816Z,24.89
2018-05-14T19:00:29.932Z,24.68
2018-05-14T19:02:57.420Z,24.47
2018-05-14T19:05:24.941Z,24.53
2018-05-14T19:07:52.435Z,24.50
2018-05-14T19:10:25.633Z,24.37
2018-05-14T19:12:53.128Z,24.32
2018-05-14T19:15:26.310Z,24.29
2018-05-14T19:17:59.439Z,24.28
2018-05-14T19:20:26.941Z,24.32
2018-05-14T19:22:59.878Z,24.17
2018-05-14T19:25:27.398Z,24.04
2018-05-14T19:53:53.579Z,23.56
2018-05-14T19:56:21.095Z,23.55
2018-05-14T19:58:57.517Z,23.32
2018-05-14T20:01:25.006Z,23.24
2018-05-14T20:03:52.513Z,23.21
2018-05-14T20:06:20.018Z,23.49
2018-05-14T20:11:37.513Z,23.21
2018-05-14T20:14:08.218Z,23.08
2018-05-14T20:16:42.147Z,22.90
2018-05-14T20:19:09.644Z,22.86
2018-05-14T20:21:37.169Z,22.93
2018-05-14T20:24:04.806Z,22.96
2018-05-14T20:26:32.305Z,22.70
2018-05-14T20:28:59.818Z,23.06
2018-05-14T20:31:27.311Z,22.62
2018-05-14T20:33:54.821Z,22.52
2018-05-14T20:36:35.883Z,22.70
2018-05-14T20:39:03.372Z,22.82
2018-05-14T20:41:30.869Z,22.66
2018-05-14T20:43:58.339Z,22.46
2018-05-14T20:46:25.874Z,22.54
2018-05-14T20:48:53.385Z,22.36
2018-05-14T20:51:20.851Z,22.33
2018-05-14T20:53:48.356Z,22.47
2018-05-14T20:56:15.838Z,22.56
2018-05-14T20:58:43.405Z,22.48
2018-05-14T21:01:10.881Z,22.32
2018-05-14T21:03:38.393Z,22.29
2018-05-14T21:06:05.878Z,22.11
2018-05-14T21:08:33.687Z,22.32
2018-05-14T21:11:01.170Z,22.19
2018-05-14T21:13:28.640Z,22.00
2018-05-14T21:15:56.131Z,21.89
2018-05-14T21:18:23.580Z,22.08
2018-05-14T21:20:55.870Z,21.90
2018-05-14T21:23:23.364Z,21.87
2018-05-14T21:25:50.880Z,21.93
2018-05-14T21:28:18.376Z,21.89
2018-05-14T21:30:45.954Z,21.49
2018-05-14T21:33:13.502Z,21.58
2018-05-14T21:35:40.997Z,21.84
2018-05-14T21:38:08.469Z,21.78
2018-05-14T21:40:35.987Z,21.66
2018-05-14T21:43:03.474Z,21.40
2018-05-14T21:45:30.947Z,21.45
2018-05-14T21:47:58.436Z,21.43
2018-05-14T21:50:25.992Z,21.25
2018-05-14T21:52:53.484Z,21.44
2018-05-14T21:55:20.958Z,21.35
2018-05-14T21:57:48.487Z,21.67
2018-05-14T22:00:16.043Z,21.27
2018-05-14T22:02:43.554Z,21.61
2018-05-14T22:05:11.037Z,21.37
2018-05-14T22:07:38.539Z,21.14
2018-05-14T22:10:06.020Z,21.04
2018-05-14T22:12:33.529Z,21.21
2018-05-14T22:15:01.095Z,21.09
2018-05-14T22:17:28.571Z,20.95
2018-05-14T22:19:56.146Z,21.21
2018-05-14T22:22:23.640Z,21.10
2018-05-14T22:24:51.145Z,21.30
2018-05-14T22:27:18.635Z,21.13
2018-05-14T22:29:46.540Z,21.15
2018-05-14T22:32:14.043Z,20.93
2018-05-14T22:34:41.571Z,20.97
2018-05-14T22:37:09.054Z,20.83
2018-05-14T22:39:36.530Z,20.93
2018-05-14T22:42:04.119Z,20.93
2018-05-14T22:44:31.627Z,20.82
2018-05-14T22:46:59.159Z,20.94
2018-05-14T22:49:26.653Z,20.75
2018-05-14T22:51:54.142Z,20.68
2018-05-14T22:54:33.414Z,20.53
2018-05-14T22:57:00.889Z,20.56
2018-05-14T22:59:28.373Z,20.51
2018-05-14T23:01:55.892Z,20.62
2018-05-14T23:04:23.410Z,20.14
2018-05-14T23:06:50.921Z,20.63
2018-05-14T23:09:18.407Z,20.46
2018-05-14T23:11:45.959Z,20.57
2018-05-14T23:14:13.523Z,20.15
2018-05-14T23:16:41.080Z,20.15
2018-05-14T23:19:08.619Z,20.08
2018-05-14T23:21:36.109Z,20.17
2018-05-14T23:24:03.692Z,20.32
2018-05-14T23:26:31.198Z,20.18
2018-05-14T23:28:58.717Z,19.89
2018-05-14T23:31:26.247Z,20.12
2018-05-14T23:33:53.716Z,20.17
2018-05-14T23:36:21.267Z,20.07
2018-05-14T23:38:48.744Z,20.10
2018-05-14T23:41:16.247Z,20.01
2018-05-14T23:43:43.764Z,20.06
2018-05-14T23:46:11.260Z,19.84
2018-05-14T23:48:38.770Z,19.89
2018-05-14T23:51:06.342Z,19.57
2018-05-14T23:53:33.891Z,19.75
2018-05-14T23:56:01.363Z,19.70
2018-05-14T23:58:28.872Z,19.70
